createdAt,value
2019-06-01T00:00:30.088Z,0.00
2019-06-01T00:01:30.137Z,0.00
2019-06-01T00:02:30.196Z,0.00
2019-06-01T00:03:30.244Z,0.00
2019-06-01T00:04:30.315Z,0.00
2019-06-01T00:05:30.342Z,0.00
2019-06-01T00:06:30.386Z,0.00
2019-06-01T00:07:30.428Z,0.00
2019-06-01T00:08:30.481Z,0.00
2019-06-01T00:09:30.558Z,0.00
2019-06-01T00:10:30.582Z,0.00
2019-06-01T00:11:30.634Z,0.00
2019-06-01T00:12:30.675Z,0.00
2019-06-01T00:13:30.726Z,0.00
2019-06-01T00:14:30.799Z,0.00
2019-06-01T00:15:30.827Z,0.00
2019-06-01T00:16:30.872Z,0.00
2019-06-01T00:17:30.920Z,0.00
2019-06-01T00:18:30.967Z,0.00
2019-06-01T00:19:31.038Z,0.00
2019-06-01T00:20:31.070Z,0.00
2019-06-01T00:21:31.115Z,0.00
2019-06-01T00:22:31.264Z,0.00
2019-06-01T00:23:31.225Z,0.00
2019-06-01T00:24:31.287Z,0.00
2019-06-01T00:25:31.308Z,0.00
2019-06-01T00:26:31.367Z,0.00
2019-06-01T00:27:31.414Z,0.00
2019-06-01T00:28:31.476Z,0.00
2019-06-01T00:29:31.542Z,0.00
2019-06-01T00:30:31.555Z,0.00
2019-06-01T00:31:31.618Z,0.00
2019-06-01T00:32:31.650Z,0.00
2019-06-01T00:33:31.708Z,0.00
2019-06-01T00:34:31.777Z,0.00
2019-06-01T00:35:31.796Z,0.00
2019-06-01T00:36:31.851Z,0.00
2019-06-01T00:37:31.896Z,0.00
2019-06-01T00:38:31.945Z,0.00
2019-06-01T00:39:32.040Z,0.00
2019-06-01T00:40:32.063Z,0.00
2019-06-01T00:41:32.091Z,0.00
2019-06-01T00:42:32.136Z,0.00
2019-06-01T00:43:32.186Z,0.00
2019-06-01T00:44:32.232Z,0.00
2019-06-01T00:45:32.307Z,0.00
2019-06-01T00:46:32.332Z,0.00
2019-06-01T00:47:32.427Z,0.00
2019-06-01T00:48:32.438Z,0.00
2019-06-01T00:49:32.473Z,0.00
2019-06-01T00:50:32.561Z,0.00
2019-06-01T00:51:32.576Z,0.00
2019-06-01T00:52:32.621Z,0.00
2019-06-01T00:53:32.671Z,0.00
2019-06-01T00:54:32.717Z,0.00
2019-06-01T00:55:32.786Z,0.00
2019-06-01T00:56:32.817Z,0.00
2019-06-01T00:57:32.866Z,0.00
2019-06-01T00:58:32.920Z,0.00
2019-06-01T00:59:32.965Z,0.00
2019-06-01T01:00:43.203Z,0.00
2019-06-01T01:01:33.057Z,0.00
2019-06-01T01:02:33.109Z,0.00
2019-06-01T01:03:33.154Z,0.00
2019-06-01T01:04:33.320Z,0.00
2019-06-01T01:05:33.382Z,0.00
2019-06-01T01:06:33.327Z,0.00
2019-06-01T01:07:33.349Z,0.00
2019-06-01T01:08:33.397Z,0.00
2019-06-01T01:09:33.466Z,0.00
2019-06-01T01:10:33.515Z,0.00
2019-06-01T01:11:33.568Z,0.00
2019-06-01T01:12:33.594Z,0.00
2019-06-01T01:13:33.651Z,0.00
2019-06-01T01:14:33.741Z,0.00
2019-06-01T01:15:33.738Z,0.00
2019-06-01T01:16:33.808Z,0.00
2019-06-01T01:17:33.832Z,0.00
2019-06-01T01:18:33.884Z,0.00
2019-06-01T01:19:33.931Z,0.00
2019-06-01T01:20:33.977Z,0.00
2019-06-01T01:21:34.086Z,0.00
2019-06-01T01:22:34.076Z,0.00
2019-06-01T01:23:34.121Z,0.00
2019-06-01T01:24:34.174Z,0.00
2019-06-01T01:25:34.222Z,0.00
2019-06-01T01:26:34.301Z,0.00
2019-06-01T01:27:34.324Z,0.00
2019-06-01T01:28:34.360Z,0.00
2019-06-01T01:29:34.409Z,0.00
2019-06-01T01:30:34.460Z,0.00
2019-06-01T01:31:34.528Z,0.00
2019-06-01T01:32:34.555Z,0.00
2019-06-01T01:33:34.601Z,0.00
2019-06-01T01:34:34.655Z,0.00
2019-06-01T01:35:34.700Z,0.00
2019-06-01T01:36:34.767Z,0.00
2019-06-01T01:37:34.831Z,0.00
2019-06-01T01:38:34.843Z,0.00
2019-06-01T01:39:34.889Z,0.00
2019-06-01T01:40:34.941Z,0.00
2019-06-01T01:41:34.985Z,0.00
2019-06-01T01:42:35.065Z,0.00
2019-06-01T01:43:35.090Z,0.00
2019-06-01T01:44:35.146Z,0.00
2019-06-01T01:45:35.178Z,0.00
2019-06-01T01:46:35.256Z,0.00
2019-06-01T01:47:35.276Z,0.00
2019-06-01T01:48:35.328Z,0.00
2019-06-01T01:49:35.372Z,0.00
2019-06-01T01:50:35.420Z,0.00
2019-06-01T01:51:35.494Z,0.00
2019-06-01T01:52:35.528Z,0.00
2019-06-01T01:53:35.568Z,0.00
2019-06-01T01:54:35.620Z,0.00
2019-06-01T01:55:35.662Z,0.00
2019-06-01T01:56:35.738Z,0.00
2019-06-01T01:57:35.899Z,0.00
2019-06-01T01:58:35.806Z,0.00
2019-06-01T01:59:35.850Z,0.00
2019-06-01T02:00:35.903Z,0.00
2019-06-01T02:01:35.978Z,0.00
2019-06-01T02:02:35.994Z,0.00
2019-06-01T02:03:36.045Z,0.00
2019-06-01T02:04:36.171Z,0.00
2019-06-01T02:05:36.140Z,0.00
2019-06-01T02:06:36.214Z,0.00
2019-06-01T02:07:36.255Z,0.00
2019-06-01T02:08:36.284Z,0.00
2019-06-01T02:09:36.330Z,0.00
2019-06-01T02:10:36.409Z,0.00
2019-06-01T02:11:36.486Z,0.00
2019-06-01T02:12:36.494Z,0.00
2019-06-01T02:13:36.609Z,0.00
2019-06-01T02:14:36.573Z,0.00
2019-06-01T02:15:36.618Z,0.00
2019-06-01T02:16:36.667Z,0.00
2019-06-01T02:17:36.750Z,0.00
2019-06-01T02:18:36.784Z,0.00
2019-06-01T02:19:36.808Z,0.00
2019-06-01T02:20:36.860Z,0.00
2019-06-01T02:21:36.908Z,0.00
2019-06-01T02:22:36.959Z,0.00
2019-06-01T02:23:37.026Z,0.00
2019-06-01T02:24:37.056Z,0.00
2019-06-01T02:25:37.116Z,0.00
2019-06-01T02:26:37.156Z,0.00
2019-06-01T02:27:37.199Z,0.00
2019-06-01T02:28:37.274Z,0.00
2019-06-01T02:29:37.286Z,0.00
2019-06-01T02:30:37.344Z,0.00
2019-06-01T02:31:42.322Z,0.00
2019-06-01T02:32:37.432Z,0.00
2019-06-01T02:33:37.515Z,0.00
2019-06-01T02:34:37.526Z,0.00
2019-06-01T02:35:37.574Z,0.00
2019-06-01T02:36:37.619Z,0.00
2019-06-01T02:37:37.669Z,0.00
2019-06-01T02:38:37.855Z,0.00
2019-06-01T02:39:37.760Z,0.00
2019-06-01T02:40:37.815Z,0.00
2019-06-01T02:41:37.890Z,0.00
2019-06-01T02:42:37.925Z,0.00
2019-06-01T02:43:37.996Z,0.00
2019-06-01T02:44:38.004Z,0.00
2019-06-01T02:45:38.143Z,0.00
2019-06-01T02:46:38.103Z,0.00
2019-06-01T02:47:38.146Z,0.00
2019-06-01T02:48:38.214Z,0.00
2019-06-01T02:49:38.243Z,0.00
2019-06-01T02:50:38.294Z,0.00
2019-06-01T02:51:38.335Z,4.00
2019-06-01T02:52:38.399Z,4.00
2019-06-01T02:53:38.462Z,0.00
2019-06-01T02:54:38.478Z,0.00
2019-06-01T02:55:38.531Z,4.00
2019-06-01T02:56:38.587Z,4.00
2019-06-01T02:57:38.633Z,4.00
2019-06-01T02:58:38.709Z,8.00
2019-06-01T02:59:38.728Z,8.00
2019-06-01T03:00:38.763Z,4.00
2019-06-01T03:01:38.817Z,12.00
2019-06-01T03:02:38.862Z,12.00
2019-06-01T03:03:38.942Z,12.00
2019-06-01T03:04:38.958Z,12.00
2019-06-01T03:05:39.005Z,16.00
2019-06-01T03:06:39.220Z,20.00
2019-06-01T03:07:39.097Z,20.00
2019-06-01T03:08:39.186Z,24.00
2019-06-01T03:09:39.194Z,28.00
2019-06-01T03:10:39.243Z,36.00
2019-06-01T03:11:39.298Z,40.00
2019-06-01T03:12:39.352Z,48.00
2019-06-01T03:13:39.414Z,52.00
2019-06-01T03:14:39.469Z,60.00
2019-06-01T03:15:39.479Z,68.00
2019-06-01T03:16:40.358Z,80.00
2019-06-01T03:17:39.574Z,88.00
2019-06-01T03:18:39.626Z,100.00
2019-06-01T03:19:39.694Z,112.00
2019-06-01T03:20:39.717Z,124.00
2019-06-01T03:21:39.769Z,140.00
2019-06-01T03:22:39.811Z,156.00
2019-06-01T03:23:39.861Z,168.00
2019-06-01T03:24:39.925Z,188.00
2019-06-01T03:25:39.953Z,208.00
2019-06-01T03:26:40.002Z,228.00
2019-06-01T03:27:40.054Z,252.00
2019-06-01T03:28:40.098Z,272.00
2019-06-01T03:29:40.169Z,296.00
2019-06-01T03:30:44.859Z,324.00
2019-06-01T03:31:40.247Z,348.00
2019-06-01T03:32:40.298Z,376.00
2019-06-01T03:33:40.337Z,408.00
2019-06-01T03:34:40.410Z,432.00
2019-06-01T03:35:40.430Z,468.00
2019-06-01T03:36:40.482Z,496.00
2019-06-01T03:37:40.523Z,528.00
2019-06-01T03:38:40.572Z,564.00
2019-06-01T03:39:40.641Z,596.00
2019-06-01T03:40:40.716Z,632.00
2019-06-01T03:41:40.716Z,660.00
2019-06-01T03:42:40.765Z,696.00
2019-06-01T03:43:40.808Z,732.00
2019-06-01T03:44:40.877Z,772.00
2019-06-01T03:45:40.902Z,808.00
2019-06-01T03:46:40.958Z,844.00
2019-06-01T03:47:41.071Z,880.00
2019-06-01T03:48:41.047Z,916.00
2019-06-01T03:49:41.112Z,956.00
2019-06-01T03:50:41.167Z,992.00
2019-06-01T03:51:41.189Z,1032.00
2019-06-01T03:52:41.232Z,1064.00
2019-06-01T03:53:41.283Z,1100.00
2019-06-01T03:54:41.378Z,1136.00
2019-06-01T03:55:41.397Z,1172.00
2019-06-01T03:56:41.429Z,1208.00
2019-06-01T03:57:41.472Z,1240.00
2019-06-01T03:58:41.522Z,1280.00
2019-06-01T03:59:41.567Z,1312.00
2019-06-01T04:00:41.634Z,1348.00
2019-06-01T04:01:41.701Z,1380.00
2019-06-01T04:02:41.710Z,1412.00
2019-06-01T04:03:41.756Z,1448.00
2019-06-01T04:04:41.813Z,1480.00
2019-06-01T04:05:41.870Z,1516.00
2019-06-01T04:06:41.900Z,1548.00
2019-06-01T04:07:41.949Z,1580.00
2019-06-01T04:08:42.001Z,1612.00
2019-06-01T04:09:42.051Z,1644.00
2019-06-01T04:10:42.104Z,1676.00
2019-06-01T04:11:42.134Z,1704.00
2019-06-01T04:12:42.181Z,1736.00
2019-06-01T04:13:42.233Z,1768.00
2019-06-01T04:14:42.294Z,1800.00
2019-06-01T04:15:42.354Z,1828.00
2019-06-01T04:16:42.376Z,1860.00
2019-06-01T04:17:42.419Z,1888.00
2019-06-01T04:18:42.468Z,1920.00
2019-06-01T04:19:42.566Z,1948.00
2019-06-01T04:20:42.591Z,1972.00
2019-06-01T04:21:42.614Z,2000.00
2019-06-01T04:22:42.657Z,2024.00
2019-06-01T04:23:42.702Z,2048.00
2019-06-01T04:24:42.753Z,2080.00
2019-06-01T04:25:42.819Z,2104.00
2019-06-01T04:26:42.863Z,2132.00
2019-06-01T04:27:42.902Z,2152.00
2019-06-01T04:28:42.942Z,2176.00
2019-06-01T04:29:42.998Z,2208.00
2019-06-01T04:30:43.065Z,2232.00
2019-06-01T04:31:43.083Z,2256.00
2019-06-01T04:32:49.989Z,2272.00
2019-06-01T04:33:43.179Z,2300.00
2019-06-01T04:34:43.234Z,2316.00
2019-06-01T04:35:43.300Z,2344.00
2019-06-01T04:36:43.341Z,2368.00
2019-06-01T04:37:43.374Z,2388.00
2019-06-01T04:38:43.428Z,2232.00
2019-06-01T04:39:43.471Z,2432.00
2019-06-01T04:40:43.519Z,2456.00
2019-06-01T04:41:43.589Z,2480.00
2019-06-01T04:42:43.607Z,2508.00
2019-06-01T04:43:43.660Z,2528.00
2019-06-01T04:44:43.720Z,2552.00
2019-06-01T04:45:43.766Z,2576.00
2019-06-01T04:46:43.815Z,2596.00
2019-06-01T04:47:43.850Z,2624.00
2019-06-01T04:48:43.891Z,2644.00
2019-06-01T04:49:44.025Z,2656.00
2019-06-01T04:50:43.995Z,2672.00
2019-06-01T04:51:44.071Z,2692.00
2019-06-01T04:52:44.091Z,2708.00
2019-06-01T04:53:44.139Z,2736.00
2019-06-01T04:54:44.178Z,2756.00
2019-06-01T04:55:44.223Z,2776.00
2019-06-01T04:56:44.305Z,2792.00
2019-06-01T04:57:44.322Z,2812.00
2019-06-01T04:58:44.376Z,2836.00
2019-06-01T04:59:44.423Z,2856.00
2019-06-01T05:00:44.471Z,2876.00
2019-06-01T05:01:44.546Z,2896.00
2019-06-01T05:02:44.569Z,2916.00
2019-06-01T05:03:44.617Z,2948.00
2019-06-01T05:04:44.669Z,2980.00
2019-06-01T05:05:44.705Z,3004.00
2019-06-01T05:06:44.774Z,3024.00
2019-06-01T05:07:44.865Z,3048.00
2019-06-01T05:08:44.847Z,3076.00
2019-06-01T05:09:44.902Z,3104.00
2019-06-01T05:10:44.969Z,3128.00
2019-06-01T05:11:45.017Z,3152.00
2019-06-01T05:12:45.066Z,3180.00
2019-06-01T05:13:45.096Z,3204.00
2019-06-01T05:14:45.221Z,3232.00
2019-06-01T05:15:45.182Z,3260.00
2019-06-01T05:16:45.259Z,3296.00
2019-06-01T05:17:45.296Z,3320.00
2019-06-01T05:18:45.338Z,3352.00
2019-06-01T05:19:45.377Z,3380.00
2019-06-01T05:20:45.431Z,3412.00
2019-06-01T05:21:45.576Z,3448.00
2019-06-01T05:22:45.545Z,3484.00
2019-06-01T05:23:45.572Z,3520.00
2019-06-01T05:24:45.616Z,3560.00
2019-06-01T05:25:45.673Z,3596.00
2019-06-01T05:26:45.715Z,3632.00
2019-06-01T05:27:45.799Z,3676.00
2019-06-01T05:28:45.814Z,3740.00
2019-06-01T05:29:45.861Z,3788.00
2019-06-01T05:30:46.024Z,3824.00
2019-06-01T05:31:45.959Z,3860.00
2019-06-01T05:32:46.027Z,3892.00
2019-06-01T05:33:46.054Z,3928.00
2019-06-01T05:34:46.102Z,3952.00
2019-06-01T05:35:46.152Z,3948.00
2019-06-01T05:36:46.200Z,3952.00
2019-06-01T05:37:46.350Z,3960.00
2019-06-01T05:38:46.298Z,3960.00
2019-06-01T05:39:46.348Z,3960.00
2019-06-01T05:40:46.395Z,3972.00
2019-06-01T05:41:46.445Z,3980.00
2019-06-01T05:42:46.520Z,3980.00
2019-06-01T05:43:46.540Z,3976.00
2019-06-01T05:44:46.639Z,3984.00
2019-06-01T05:45:46.639Z,3980.00
2019-06-01T05:46:46.688Z,3984.00
2019-06-01T05:47:46.762Z,3956.00
2019-06-01T05:48:46.802Z,3924.00
2019-06-01T05:49:46.833Z,3896.00
2019-06-01T05:50:46.893Z,3840.00
2019-06-01T05:51:46.940Z,3852.00
2019-06-01T05:52:46.986Z,3856.00
2019-06-01T05:53:47.063Z,3808.00
2019-06-01T05:54:47.080Z,3760.00
2019-06-01T05:55:47.125Z,3748.00
2019-06-01T05:56:47.175Z,3752.00
2019-06-01T05:57:47.232Z,3744.00
2019-06-01T05:58:47.329Z,3748.00
2019-06-01T05:59:47.325Z,3740.00
2019-06-01T06:00:47.378Z,3748.00
2019-06-01T06:01:47.422Z,3744.00
2019-06-01T06:02:47.470Z,3748.00
2019-06-01T06:03:47.560Z,3760.00
2019-06-01T06:04:47.576Z,3764.00
2019-06-01T06:05:47.625Z,3768.00
2019-06-01T06:06:47.668Z,3780.00
2019-06-01T06:07:47.714Z,3788.00
2019-06-01T06:08:47.806Z,3804.00
2019-06-01T06:09:47.875Z,3804.00
2019-06-01T06:10:47.868Z,3816.00
2019-06-01T06:11:47.912Z,3824.00
2019-06-01T06:12:47.965Z,3828.00
2019-06-01T06:13:48.037Z,3840.00
2019-06-01T06:14:48.087Z,3852.00
2019-06-01T06:15:48.113Z,3864.00
2019-06-01T06:16:48.286Z,3880.00
2019-06-01T06:17:48.213Z,3896.00
2019-06-01T06:18:48.268Z,3916.00
2019-06-01T06:19:48.331Z,3936.00
2019-06-01T06:20:48.368Z,3968.00
2019-06-01T06:21:48.411Z,4000.00
2019-06-01T06:22:48.461Z,4040.00
2019-06-01T06:23:48.544Z,4072.00
2019-06-01T06:24:48.557Z,4104.00
2019-06-01T06:25:48.673Z,4132.00
2019-06-01T06:26:48.670Z,4164.00
2019-06-01T06:27:48.728Z,4196.00
2019-06-01T06:28:48.784Z,4220.00
2019-06-01T06:29:48.837Z,4240.00
2019-06-01T06:30:48.853Z,4264.00
2019-06-01T06:31:48.905Z,4288.00
2019-06-01T06:32:48.955Z,4312.00
2019-06-01T06:33:56.745Z,12436.00
2019-06-01T06:34:49.081Z,28928.00
2019-06-01T06:35:49.110Z,33152.00
2019-06-01T06:36:49.160Z,33664.00
2019-06-01T06:37:49.200Z,33216.00
2019-06-01T06:38:49.284Z,34944.00
2019-06-01T06:39:49.317Z,35328.00
2019-06-01T06:40:49.380Z,34400.00
2019-06-01T06:41:49.413Z,33312.00
2019-06-01T06:42:49.450Z,34880.00
2019-06-01T06:43:49.511Z,34912.00
2019-06-01T06:44:49.573Z,32992.00
2019-06-01T06:45:49.631Z,34400.00
2019-06-01T06:46:49.678Z,36320.00
2019-06-01T06:47:49.718Z,36768.00
2019-06-01T06:48:49.755Z,37152.00
2019-06-01T06:49:49.824Z,37952.00
2019-06-01T06:50:49.950Z,38624.00
2019-06-01T06:51:49.912Z,38400.00
2019-06-01T06:52:49.957Z,38624.00
2019-06-01T06:53:50.022Z,40128.00
2019-06-01T06:54:50.096Z,41056.00
2019-06-01T06:55:50.113Z,40576.00
2019-06-01T06:56:50.158Z,40416.00
2019-06-01T06:57:50.293Z,41472.00
2019-06-01T06:58:50.265Z,42240.00
2019-06-01T06:59:50.336Z,44128.00
2019-06-01T07:00:50.386Z,46624.00
2019-06-01T07:01:50.427Z,46592.00
2019-06-01T07:02:50.466Z,44192.00
2019-06-01T07:03:50.512Z,44000.00
2019-06-01T07:04:50.656Z,45312.00
2019-06-01T07:05:50.653Z,46144.00
2019-06-01T07:06:50.683Z,46688.00
2019-06-01T07:07:50.717Z,47680.00
2019-06-01T07:08:50.790Z,48672.00
2019-06-01T07:09:50.859Z,50304.00
2019-06-01T07:10:50.914Z,50912.00
2019-06-01T07:11:50.929Z,51008.00
2019-06-01T07:12:51.036Z,48544.00
2019-06-01T07:13:51.042Z,47168.00
2019-06-01T07:14:51.085Z,46208.00
2019-06-01T07:15:51.156Z,47584.00
2019-06-01T07:16:51.193Z,52000.00
2019-06-01T07:17:51.250Z,55744.00
2019-06-01T07:18:51.288Z,56032.00
2019-06-01T07:19:51.340Z,55008.00
2019-06-01T07:20:51.444Z,55104.00
2019-06-01T07:21:51.441Z,57280.00
2019-06-01T07:22:51.511Z,58336.00
2019-06-01T07:23:51.564Z,57536.00
2019-06-01T07:24:51.621Z,58048.00
2019-06-01T07:25:51.684Z,57600.00
2019-06-01T07:26:51.732Z,58016.00
2019-06-01T07:27:51.772Z,59872.00
2019-06-01T07:28:51.886Z,61024.00
2019-06-01T07:29:51.882Z,63552.00
2019-06-01T07:30:51.946Z,66208.00
2019-06-01T07:31:52.095Z,65856.00
2019-06-01T07:32:52.047Z,65280.00
2019-06-01T07:33:52.076Z,67776.00
2019-06-01T07:34:52.124Z,70624.00
2019-06-01T07:35:52.205Z,72544.00
2019-06-01T07:36:52.239Z,70720.00
2019-06-01T07:37:52.281Z,66208.00
2019-06-01T07:38:52.350Z,63168.00
2019-06-01T07:39:52.386Z,62816.00
2019-06-01T07:40:52.500Z,63808.00
2019-06-01T07:41:52.530Z,62336.00
2019-06-01T07:42:52.547Z,60672.00
2019-06-01T07:43:52.596Z,58880.00
2019-06-01T07:44:52.664Z,62368.00
2019-06-01T07:45:52.722Z,70880.00
2019-06-01T07:46:52.751Z,71968.00
2019-06-01T07:47:52.809Z,71264.00
2019-06-01T07:48:52.858Z,70400.00
2019-06-01T07:49:52.917Z,68000.00
2019-06-01T07:50:52.982Z,65760.00
2019-06-01T07:51:53.103Z,63808.00
2019-06-01T07:52:53.084Z,61824.00
2019-06-01T07:53:53.161Z,67040.00
2019-06-01T07:54:53.175Z,72576.00
2019-06-01T07:55:53.235Z,73120.00
2019-06-01T07:56:53.309Z,72032.00
2019-06-01T07:57:53.333Z,72416.00
2019-06-01T07:58:53.387Z,74656.00
2019-06-01T07:59:53.445Z,75808.00
2019-06-01T08:00:53.488Z,73632.00
2019-06-01T08:01:53.582Z,70912.00
2019-06-01T08:02:53.603Z,69472.00
2019-06-01T08:03:53.660Z,70112.00
2019-06-01T08:04:54.774Z,73504.00
2019-06-01T08:05:53.760Z,75680.00
2019-06-01T08:06:53.831Z,74784.00
2019-06-01T08:07:53.972Z,61568.00
2019-06-01T08:08:53.911Z,70720.00
2019-06-01T08:09:53.979Z,73056.00
2019-06-01T08:10:54.017Z,76256.00
2019-06-01T08:11:54.106Z,75968.00
2019-06-01T08:12:54.159Z,74336.00
2019-06-01T08:13:54.187Z,71808.00
2019-06-01T08:14:54.247Z,71296.00
2019-06-01T08:15:54.279Z,74208.00
2019-06-01T08:16:54.368Z,75712.00
2019-06-01T08:17:54.389Z,76768.00
2019-06-01T08:18:54.438Z,79520.00
2019-06-01T08:19:54.490Z,80192.00
2019-06-01T08:20:54.544Z,80416.00
2019-06-01T08:21:54.637Z,81760.00
2019-06-01T08:22:54.680Z,84192.00
2019-06-01T08:23:54.714Z,86144.00
2019-06-01T08:24:54.768Z,86624.00
2019-06-01T08:25:54.808Z,83584.00
2019-06-01T08:26:54.874Z,80704.00
2019-06-01T08:27:54.938Z,79584.00
2019-06-01T08:28:54.970Z,81024.00
2019-06-01T08:29:55.027Z,81792.00
2019-06-01T08:30:55.093Z,78944.00
2019-06-01T08:31:55.841Z,76928.00
2019-06-01T08:32:55.198Z,75328.00
2019-06-01T08:33:55.250Z,78752.00
2019-06-01T08:35:07.783Z,83488.00
2019-06-01T08:35:55.342Z,88384.00
2019-06-01T08:36:55.415Z,91072.00
2019-06-01T08:37:55.468Z,92032.00
2019-06-01T08:38:55.508Z,90944.00
2019-06-01T08:39:59.001Z,86976.00
2019-06-01T08:40:55.626Z,83616.00
2019-06-01T08:41:55.660Z,81600.00
2019-06-01T08:42:55.743Z,83040.00
2019-06-01T08:43:55.778Z,82752.00
2019-06-01T08:44:55.822Z,82368.00
2019-06-01T08:45:55.884Z,84064.00
2019-06-01T08:46:55.925Z,89184.00
2019-06-01T08:47:56.011Z,96576.00
2019-06-01T08:48:56.042Z,99040.00
2019-06-01T08:49:56.102Z,96736.00
2019-06-01T08:50:56.141Z,91360.00
2019-06-01T08:51:56.202Z,87360.00
2019-06-01T08:52:56.276Z,81952.00
2019-06-01T08:53:56.322Z,80608.00
2019-06-01T08:54:56.363Z,83136.00
2019-06-01T08:55:56.409Z,87136.00
2019-06-01T08:56:56.465Z,89792.00
2019-06-01T08:57:56.510Z,89568.00
2019-06-01T08:58:56.589Z,87232.00
2019-06-01T08:59:56.625Z,83008.00
2019-06-01T09:00:56.681Z,81408.00
2019-06-01T09:01:56.732Z,83680.00
2019-06-01T09:02:56.796Z,89120.00
2019-06-01T09:03:56.868Z,94272.00
2019-06-01T09:04:56.886Z,97664.00
2019-06-01T09:05:56.941Z,97376.00
2019-06-01T09:06:56.998Z,96768.00
2019-06-01T09:07:57.050Z,97216.00
2019-06-01T09:08:57.120Z,99008.00
2019-06-01T09:09:57.174Z,101088.00
2019-06-01T09:10:57.217Z,101984.00
2019-06-01T09:11:57.348Z,99744.00
2019-06-01T09:12:57.316Z,93984.00
2019-06-01T09:13:57.424Z,90720.00
2019-06-01T09:14:57.447Z,89152.00
2019-06-01T09:15:57.475Z,88032.00
2019-06-01T09:16:57.540Z,90880.00
2019-06-01T09:17:57.592Z,94112.00
2019-06-01T09:18:57.638Z,97376.00
2019-06-01T09:19:57.737Z,96640.00
2019-06-01T09:20:57.759Z,93888.00
2019-06-01T09:21:57.799Z,91712.00
2019-06-01T09:22:57.933Z,94112.00
2019-06-01T09:23:57.924Z,95840.00
2019-06-01T09:24:57.992Z,95712.00
2019-06-01T09:25:58.015Z,93344.00
2019-06-01T09:26:58.088Z,92352.00
2019-06-01T09:27:58.130Z,90176.00
2019-06-01T09:28:58.181Z,90016.00
2019-06-01T09:29:58.255Z,91424.00
2019-06-01T09:30:58.296Z,95552.00
2019-06-01T09:31:58.365Z,99904.00
2019-06-01T09:32:58.396Z,101568.00
2019-06-01T09:33:58.455Z,100128.00
2019-06-01T09:34:58.529Z,98624.00
2019-06-01T09:35:58.565Z,96832.00
2019-06-01T09:36:58.618Z,99584.00
2019-06-01T09:37:58.672Z,102784.00
2019-06-01T09:38:58.726Z,102048.00
2019-06-01T09:39:58.841Z,99008.00
2019-06-01T09:40:58.960Z,96160.00
2019-06-01T09:41:58.887Z,94592.00
2019-06-01T09:42:58.955Z,95040.00
2019-06-01T09:43:59.005Z,94944.00
2019-06-01T09:44:59.081Z,95680.00
2019-06-01T09:45:59.115Z,96000.00
2019-06-01T09:46:59.170Z,95776.00
2019-06-01T09:47:59.263Z,96160.00
2019-06-01T09:48:59.266Z,95776.00
2019-06-01T09:49:59.347Z,97472.00
2019-06-01T09:50:59.413Z,100000.00
2019-06-01T09:51:59.431Z,103168.00
2019-06-01T09:52:59.492Z,104352.00
2019-06-01T09:53:59.548Z,103680.00
2019-06-01T09:54:59.597Z,102112.00
2019-06-01T09:55:59.672Z,100032.00
2019-06-01T09:56:59.716Z,97376.00
2019-06-01T09:57:59.773Z,94464.00
2019-06-01T09:58:59.815Z,93344.00
2019-06-01T09:59:59.879Z,92672.00
2019-06-01T10:00:59.942Z,93792.00
2019-06-01T10:01:59.989Z,98080.00
2019-06-01T10:03:00.038Z,100768.00
2019-06-01T10:04:00.090Z,104192.00
2019-06-01T10:05:00.155Z,103168.00
2019-06-01T10:06:02.117Z,102208.00
2019-06-01T10:07:00.258Z,102464.00
2019-06-01T10:08:00.301Z,105600.00
2019-06-01T10:09:00.378Z,107712.00
2019-06-01T10:10:00.415Z,108224.00
2019-06-01T10:11:00.496Z,108800.00
2019-06-01T10:12:00.523Z,105728.00
2019-06-01T10:13:00.584Z,105024.00
2019-06-01T10:14:00.630Z,103648.00
2019-06-01T10:15:00.691Z,100736.00
2019-06-01T10:16:00.773Z,99328.00
2019-06-01T10:17:00.836Z,99040.00
2019-06-01T10:18:00.870Z,98080.00
2019-06-01T10:19:00.918Z,100704.00
2019-06-01T10:20:00.981Z,107904.00
2019-06-01T10:21:01.063Z,111104.00
2019-06-01T10:22:01.080Z,110528.00
2019-06-01T10:23:01.135Z,111488.00
2019-06-01T10:24:01.188Z,112448.00
2019-06-01T10:25:01.244Z,115104.00
2019-06-01T10:26:01.314Z,114240.00
2019-06-01T10:27:01.358Z,111552.00
2019-06-01T10:28:01.403Z,108832.00
2019-06-01T10:29:01.456Z,105984.00
2019-06-01T10:30:01.627Z,105632.00
2019-06-01T10:31:01.592Z,109504.00
2019-06-01T10:32:01.638Z,112800.00
2019-06-01T10:33:01.672Z,113792.00
2019-06-01T10:34:01.742Z,117856.00
2019-06-01T10:35:01.781Z,119616.00
2019-06-01T10:36:18.601Z,118080.00
2019-06-01T10:37:02.027Z,114720.00
2019-06-01T10:38:02.009Z,113024.00
2019-06-01T10:39:02.009Z,117376.00
2019-06-01T10:40:02.062Z,119040.00
2019-06-01T10:41:02.131Z,121536.00
2019-06-01T10:42:02.194Z,122016.00
2019-06-01T10:43:02.219Z,119616.00
2019-06-01T10:44:02.279Z,118400.00
2019-06-01T10:45:02.630Z,115168.00
2019-06-01T10:46:02.389Z,112576.00
2019-06-01T10:47:02.461Z,112608.00
2019-06-01T10:48:02.497Z,114816.00
2019-06-01T10:49:02.569Z,117440.00
2019-06-01T10:50:02.610Z,120832.00
2019-06-01T10:51:02.675Z,118976.00
2019-06-01T10:52:02.731Z,117024.00
2019-06-01T10:53:02.769Z,114624.00
2019-06-01T10:54:02.822Z,112768.00
2019-06-01T10:55:02.877Z,115040.00
2019-06-01T10:56:02.932Z,115264.00
2019-06-01T10:57:03.018Z,115680.00
2019-06-01T10:58:03.046Z,116192.00
2019-06-01T10:59:03.096Z,116288.00
2019-06-01T11:00:03.150Z,118208.00
2019-06-01T11:01:03.256Z,124064.00
2019-06-01T11:02:03.277Z,130848.00
2019-06-01T11:03:03.346Z,133920.00
2019-06-01T11:04:03.372Z,132256.00
2019-06-01T11:05:03.427Z,124480.00
2019-06-01T11:06:03.497Z,116768.00
2019-06-01T11:07:03.551Z,107840.00
2019-06-01T11:08:03.585Z,103840.00
2019-06-01T11:09:03.645Z,104832.00
2019-06-01T11:10:03.695Z,110400.00
2019-06-01T11:11:03.771Z,115424.00
2019-06-01T11:12:03.829Z,118816.00
2019-06-01T11:13:03.886Z,121856.00
2019-06-01T11:14:03.909Z,124224.00
2019-06-01T11:15:03.984Z,127328.00
2019-06-01T11:16:04.030Z,127808.00
2019-06-01T11:17:04.115Z,125408.00
2019-06-01T11:18:04.150Z,119904.00
2019-06-01T11:19:04.187Z,113632.00
2019-06-01T11:20:04.241Z,108544.00
2019-06-01T11:21:04.306Z,104608.00
2019-06-01T11:22:04.354Z,103104.00
2019-06-01T11:23:04.437Z,107360.00
2019-06-01T11:24:04.497Z,111968.00
2019-06-01T11:25:04.539Z,117792.00
2019-06-01T11:26:04.583Z,121088.00
2019-06-01T11:27:04.630Z,123328.00
2019-06-01T11:28:04.702Z,121216.00
2019-06-01T11:29:04.733Z,115904.00
2019-06-01T11:30:04.795Z,111616.00
2019-06-01T11:31:04.851Z,107680.00
2019-06-01T11:32:04.902Z,107808.00
2019-06-01T11:33:04.989Z,109664.00
2019-06-01T11:34:05.019Z,112416.00
2019-06-01T11:35:05.215Z,113088.00
2019-06-01T11:36:05.122Z,116128.00
2019-06-01T11:37:05.766Z,114848.00
2019-06-01T11:38:05.268Z,114816.00
2019-06-01T11:39:05.307Z,113888.00
2019-06-01T11:40:05.354Z,113152.00
2019-06-01T11:41:05.412Z,111296.00
2019-06-01T11:42:05.471Z,113024.00
2019-06-01T11:43:05.555Z,118176.00
2019-06-01T11:44:05.596Z,121888.00
2019-06-01T11:45:05.642Z,119872.00
2019-06-01T11:46:05.689Z,117344.00
2019-06-01T11:47:05.761Z,112448.00
2019-06-01T11:48:05.834Z,109216.00
2019-06-01T11:49:05.865Z,105536.00
2019-06-01T11:50:05.927Z,104704.00
2019-06-01T11:51:05.983Z,107008.00
2019-06-01T11:52:06.042Z,109568.00
2019-06-01T11:53:06.123Z,113280.00
2019-06-01T11:54:06.176Z,115232.00
2019-06-01T11:55:06.867Z,112864.00
2019-06-01T11:56:06.274Z,110720.00
2019-06-01T11:57:06.346Z,107392.00
2019-06-01T11:58:06.404Z,104768.00
2019-06-01T11:59:06.477Z,104160.00
2019-06-01T12:00:06.510Z,101888.00
2019-06-01T12:01:06.569Z,102656.00
2019-06-01T12:02:06.636Z,104320.00
2019-06-01T12:03:06.699Z,104128.00
2019-06-01T12:04:06.763Z,102912.00
2019-06-01T12:05:06.809Z,99264.00
2019-06-01T12:06:06.872Z,97088.00
2019-06-01T12:07:16.894Z,95584.00
2019-06-01T12:08:06.987Z,95872.00
2019-06-01T12:09:07.065Z,98048.00
2019-06-01T12:10:07.100Z,99648.00
2019-06-01T12:11:07.171Z,100352.00